Station History

Weather Underground - logo

Station Historical Data
Daily Summary for February 18, 2018 Units:  English    Metric   Both
« Previous Day
Next Day »
Daily Weekly Monthly Yearly Custom
  High: Low: Average:
Temperature: 68.8 °F 39.0 °F 54 °F
Dew Point: 41.2 °F 32.6 °F 37.2 °F
Humidity: 86 % 33 % 56 %
Wind Speed: 12.7 mph 0.0 mph 3.5 mph
Wind Gust: 12.7 mph - -
Wind:- - WNW
Pressure: 30.01 in 29.82 in -
Precipitation: 0.00 in    
Historical Graphs
 
 
Tabular Data for February 18, 2018
Time Temperature Dew Point Pressure Wind Wind Speed Wind Gust Humidity Rainfall Rate (Hourly)
00:01 43.2 °F 37.1 °F 30.01 in Calm     79 % 0.00 in
00:06 43.1 °F 37.0 °F 30.01 in Calm     79 % 0.00 in
00:11 42.9 °F 36.8 °F 30.01 in Calm     79 % 0.00 in
00:16 42.6 °F 36.5 °F 30.01 in Calm     79 % 0.00 in
00:21 42.2 °F 36.5 °F 30.01 in Calm     80 % 0.00 in
00:26 41.9 °F 36.5 °F 30.01 in Calm     81 % 0.00 in
00:31 42.1 °F 37.3 °F 30.01 in Calm     83 % 0.00 in
00:37 42.0 °F 36.6 °F 30.00 in Calm     81 % 0.00 in
00:42 41.8 °F 37.0 °F 30.00 in Calm     83 % 0.00 in
00:47 41.5 °F 36.4 °F 30.00 in Calm     82 % 0.00 in
00:52 41.3 °F 36.5 °F 30.00 in Calm     83 % 0.00 in
00:57 41.5 °F 37.0 °F 30.00 in Calm     84 % 0.00 in
01:02 41.6 °F 36.8 °F 30.00 in Calm     83 % 0.00 in
01:07 41.7 °F 36.9 °F 30.00 in Calm     83 % 0.00 in
01:12 41.6 °F 36.5 °F 30.00 in Calm     82 % 0.00 in
01:17 41.3 °F 36.2 °F 30.00 in Calm     82 % 0.00 in
01:22 41.1 °F 36.3 °F 30.00 in Calm     83 % 0.00 in
01:27 40.9 °F 36.1 °F 30.00 in Calm     83 % 0.00 in
01:32 40.8 °F 36.0 °F 30.00 in Calm     83 % 0.00 in
01:37 40.6 °F 35.8 °F 30.00 in Calm     83 % 0.00 in
01:42 40.6 °F 36.1 °F 30.00 in Calm     84 % 0.00 in
01:47 40.8 °F 36.3 °F 30.00 in Calm     84 % 0.00 in
01:52 41.0 °F 36.5 °F 30.00 in Calm     84 % 0.00 in
01:58 41.3 °F 36.8 °F 30.00 in Calm     84 % 0.00 in
02:03 41.7 °F 36.9 °F 30.00 in Calm     83 % 0.00 in
02:08 41.7 °F 36.6 °F 29.99 in Calm     82 % 0.00 in
02:13 41.4 °F 36.6 °F 29.99 in Calm     83 % 0.00 in
02:18 41.6 °F 36.8 °F 30.00 in Calm     83 % 0.00 in
02:23 41.9 °F 36.8 °F 30.00 in Calm     82 % 0.00 in
02:28 42.2 °F 36.8 °F 30.00 in Calm     81 % 0.00 in
02:33 42.6 °F 36.9 °F 30.00 in NNW 1.2 mph 1.2 mph 80 % 0.00 in
02:38 42.9 °F 36.8 °F 30.00 in NNW 2.3 mph 2.3 mph 79 % 0.00 in
02:43 43.3 °F 36.9 °F 30.00 in NW 1.2 mph 1.2 mph 78 % 0.00 in
02:48 43.8 °F 36.7 °F 29.99 in NW 1.2 mph 1.2 mph 76 % 0.00 in
02:53 44.1 °F 36.7 °F 29.99 in NW 1.2 mph   75 % 0.00 in
02:58 44.3 °F 36.5 °F 29.99 in Calm     74 % 0.00 in
03:03 44.5 °F 36.4 °F 29.99 in NW 1.2 mph 1.2 mph 73 % 0.00 in
03:08 44.9 °F 36.4 °F 29.99 in WNW 1.2 mph 1.2 mph 72 % 0.00 in
03:13 45.5 °F 36.6 °F 29.99 in WNW 1.2 mph 1.2 mph 71 % 0.00 in
03:18 46.1 °F 36.5 °F 29.98 in NW 1.2 mph 1.2 mph 69 % 0.00 in
03:23 46.7 °F 36.7 °F 29.98 in NW 1.2 mph 1.2 mph 68 % 0.00 in
03:28 47.2 °F 36.8 °F 29.98 in WNW 2.3 mph 2.3 mph 67 % 0.00 in
03:33 47.4 °F 36.6 °F 29.98 in NW 1.2 mph 1.2 mph 66 % 0.00 in
03:38 47.4 °F 36.6 °F 29.98 in WNW 1.2 mph   66 % 0.00 in
03:43 47.3 °F 36.5 °F 29.98 in Calm     66 % 0.00 in
03:48 47.1 °F 36.3 °F 29.97 in WNW 1.2 mph   66 % 0.00 in
03:53 46.9 °F 36.5 °F 29.97 in Calm     67 % 0.00 in
03:58 46.7 °F 36.3 °F 29.97 in Calm     67 % 0.00 in
04:03 46.5 °F 36.5 °F 29.97 in Calm     68 % 0.00 in
04:08 45.9 °F 36.3 °F 29.97 in Calm     69 % 0.00 in
04:13 45.4 °F 36.2 °F 29.97 in Calm     70 % 0.00 in
04:18 44.8 °F 36.3 °F 29.97 in Calm     72 % 0.00 in
04:23 43.8 °F 36.0 °F 29.97 in WNW 1.2 mph   74 % 0.00 in
04:28 42.7 °F 35.7 °F 29.97 in Calm     76 % 0.00 in
04:33 42.0 °F 35.3 °F 29.97 in Calm     77 % 0.00 in
04:38 41.6 °F 35.6 °F 29.97 in Calm     79 % 0.00 in
04:43 41.1 °F 35.4 °F 29.97 in Calm     80 % 0.00 in
04:48 40.8 °F 35.1 °F 29.97 in Calm     80 % 0.00 in
04:53 40.6 °F 35.2 °F 29.97 in Calm     81 % 0.00 in
04:58 40.3 °F 34.9 °F 29.97 in Calm     81 % 0.00 in
05:03 40.0 °F 35.3 °F 29.97 in Calm     83 % 0.00 in
05:08 40.1 °F 35.4 °F 29.96 in Calm     83 % 0.00 in
05:13 39.8 °F 35.1 °F 29.96 in Calm     83 % 0.00 in
05:18 39.6 °F 35.2 °F 29.95 in Calm     84 % 0.00 in
05:24 39.6 °F 35.5 °F 29.95 in Calm     85 % 0.00 in
05:29 39.6 °F 35.2 °F 29.95 in Calm     84 % 0.00 in
05:34 39.8 °F 35.1 °F 29.95 in Calm     83 % 0.00 in
05:39 39.9 °F 35.2 °F 29.95 in Calm     83 % 0.00 in
05:44 39.8 °F 34.8 °F 29.95 in Calm     82 % 0.00 in
05:49 39.8 °F 35.4 °F 29.95 in Calm     84 % 0.00 in
05:54 39.5 °F 35.1 °F 29.95 in Calm     84 % 0.00 in
05:59 39.2 °F 34.8 °F 29.95 in Calm     84 % 0.00 in
06:04 39.1 °F 34.7 °F 29.95 in Calm     84 % 0.00 in
06:09 39.0 °F 35.2 °F 29.95 in Calm     86 % 0.00 in
06:14 39.2 °F 35.4 °F 29.94 in Calm     86 % 0.00 in
06:19 39.2 °F 35.4 °F 29.95 in Calm     86 % 0.00 in
06:24 39.2 °F 35.4 °F 29.94 in Calm     86 % 0.00 in
06:29 39.2 °F 35.4 °F 29.94 in Calm     86 % 0.00 in
06:34 39.4 °F 35.6 °F 29.94 in Calm     86 % 0.00 in
06:39 40.0 °F 35.6 °F 29.94 in Calm     84 % 0.00 in
06:44 40.7 °F 35.6 °F 29.94 in Calm     82 % 0.00 in
06:49 41.2 °F 35.5 °F 29.94 in Calm     80 % 0.00 in
06:54 41.6 °F 36.2 °F 29.94 in Calm     81 % 0.00 in
06:59 42.0 °F 36.3 °F 29.95 in Calm     80 % 0.00 in
07:04 42.4 °F 36.7 °F 29.95 in Calm     80 % 0.00 in
07:09 42.7 °F 37.0 °F 29.95 in Calm     80 % 0.00 in
07:14 42.9 °F 37.2 °F 29.95 in Calm     80 % 0.00 in
07:19 43.1 °F 37.3 °F 29.96 in Calm     80 % 0.00 in
07:24 43.5 °F 37.4 °F 29.96 in Calm     79 % 0.00 in
07:29 43.9 °F 37.8 °F 29.97 in Calm     79 % 0.00 in
07:34 44.2 °F 37.8 °F 29.97 in Calm     78 % 0.00 in
07:39 44.9 °F 37.8 °F 29.97 in NNW 1.2 mph 1.2 mph 76 % 0.00 in
07:44 45.7 °F 37.5 °F 29.97 in Calm     73 % 0.00 in
07:49 46.5 °F 37.6 °F 29.97 in NW 2.0 mph 2.0 mph 71 % 0.00 in
07:54 47.0 °F 37.7 °F 29.97 in Calm     70 % 0.00 in
07:59 47.7 °F 38.4 °F 29.97 in Calm     70 % 0.00 in
08:04 48.8 °F 38.7 °F 29.97 in WNW 1.2 mph   68 % 0.00 in
08:09 49.5 °F 39.4 °F 29.97 in Calm     68 % 0.00 in
08:14 50.0 °F 38.7 °F 29.97 in WNW 1.2 mph 1.2 mph 65 % 0.00 in
08:19 50.3 °F 38.6 °F 29.97 in WNW 1.2 mph 1.2 mph 64 % 0.00 in
08:24 51.2 °F 38.2 °F 29.97 in NW 1.2 mph 1.2 mph 61 % 0.00 in
08:29 52.3 °F 38.4 °F 29.97 in Calm     59 % 0.00 in
08:34 53.3 °F 38.4 °F 29.97 in NW 1.2 mph 1.2 mph 57 % 0.00 in
08:39 54.3 °F 38.0 °F 29.97 in NW 1.2 mph   54 % 0.00 in
08:44 55.3 °F 38.0 °F 29.97 in NW 1.2 mph 1.2 mph 52 % 0.00 in
08:49 56.2 °F 38.3 °F 29.97 in Calm     51 % 0.00 in
08:54 56.9 °F 37.4 °F 29.96 in WNW 1.2 mph 1.2 mph 48 % 0.00 in
08:59 57.6 °F 38.6 °F 29.96 in Calm     49 % 0.00 in
09:04 58.7 °F 39.6 °F 29.96 in Calm     49 % 0.00 in
09:09 59.5 °F 38.1 °F 29.96 in Calm     45 % 0.00 in
09:14 59.7 °F 37.7 °F 29.96 in NW 1.2 mph 1.2 mph 44 % 0.00 in
09:19 60.0 °F 38.0 °F 29.96 in Calm     44 % 0.00 in
09:24 60.4 °F 38.9 °F 29.95 in Calm     45 % 0.00 in
09:29 60.8 °F 36.9 °F 29.95 in WNW 1.2 mph 1.2 mph 41 % 0.00 in
09:35 61.2 °F 37.9 °F 29.95 in WNW 1.2 mph 1.2 mph 42 % 0.00 in
09:40 62.0 °F 37.4 °F 29.95 in Calm     40 % 0.00 in
09:45 62.8 °F 37.5 °F 29.94 in South 1.2 mph   39 % 0.00 in
09:50 63.7 °F 37.6 °F 29.94 in SE 1.2 mph   38 % 0.00 in
09:55 64.3 °F 38.1 °F 29.95 in SSE 2.3 mph 2.3 mph 38 % 0.00 in
10:00 64.7 °F 36.4 °F 29.95 in ENE 1.2 mph   35 % 0.00 in
10:05 64.4 °F 37.5 °F 29.95 in South 2.3 mph 2.3 mph 37 % 0.00 in
10:10 64.9 °F 39.3 °F 29.95 in SSE 1.2 mph 1.2 mph 39 % 0.00 in
10:15 65.4 °F 37.7 °F 29.94 in SSW 2.3 mph 2.3 mph 36 % 0.00 in
10:20 65.6 °F 36.5 °F 29.94 in WSW 3.0 mph 3.0 mph 34 % 0.00 in
10:25 65.2 °F 37.6 °F 29.94 in West 1.2 mph   36 % 0.00 in
10:30 65.2 °F 36.8 °F 29.94 in North 1.2 mph 1.2 mph 35 % 0.00 in
10:35 65.4 °F 39.8 °F 29.94 in WSW 2.3 mph 2.3 mph 39 % 0.00 in
10:40 65.8 °F 39.5 °F 29.94 in East 3.5 mph 3.5 mph 38 % 0.00 in
10:45 65.6 °F 39.3 °F 29.94 in WSW 3.0 mph 3.0 mph 38 % 0.00 in
10:50 65.3 °F 39.7 °F 29.94 in SSE 2.3 mph 2.3 mph 39 % 0.00 in
10:55 65.5 °F 41.2 °F 29.94 in SSW 2.3 mph 2.3 mph 41 % 0.00 in
11:00 65.7 °F 40.1 °F 29.94 in WNW 3.5 mph 3.5 mph 39 % 0.00 in
11:05 65.4 °F 39.1 °F 29.93 in West 2.3 mph 2.3 mph 38 % 0.00 in
11:10 65.4 °F 39.1 °F 29.93 in NNW 1.2 mph 1.2 mph 38 % 0.00 in
11:15 65.9 °F 39.6 °F 29.93 in NNW 3.5 mph 3.5 mph 38 % 0.00 in
11:20 65.9 °F 40.2 °F 29.93 in NW 3.0 mph 3.0 mph 39 % 0.00 in
11:25 66.1 °F 37.6 °F 29.92 in NNW 3.5 mph 3.5 mph 35 % 0.00 in
11:30 66.1 °F 39.7 °F 29.92 in Calm     38 % 0.00 in
11:35 66.7 °F 40.3 °F 29.92 in ESE 2.3 mph 2.3 mph 38 % 0.00 in
11:40 67.2 °F 40.0 °F 29.92 in NE 2.3 mph 2.3 mph 37 % 0.00 in
11:45 67.5 °F 40.3 °F 29.92 in NW 2.3 mph 2.3 mph 37 % 0.00 in
11:50 67.9 °F 38.5 °F 29.92 in NW 2.3 mph 2.3 mph 34 % 0.00 in
11:55 67.9 °F 37.7 °F 29.91 in NW 3.5 mph 3.5 mph 33 % 0.00 in
12:00 67.9 °F 38.5 °F 29.91 in South 2.3 mph 2.3 mph 34 % 0.00 in
12:05 68.4 °F 39.7 °F 29.91 in NW 3.5 mph 3.5 mph 35 % 0.00 in
12:10 68.3 °F 40.3 °F 29.90 in NE 3.5 mph 3.5 mph 36 % 0.00 in
12:15 68.1 °F 39.4 °F 29.90 in WNW 2.3 mph 2.3 mph 35 % 0.00 in
12:20 68.0 °F 40.0 °F 29.90 in WNW 4.6 mph 4.6 mph 36 % 0.00 in
12:25 67.9 °F 39.9 °F 29.90 in West 3.5 mph 3.5 mph 36 % 0.00 in
12:30 68.0 °F 40.0 °F 29.90 in NW 4.6 mph 4.6 mph 36 % 0.00 in
12:35 68.0 °F 40.0 °F 29.89 in NW 3.5 mph 3.5 mph 36 % 0.00 in
12:41 68.2 °F 40.2 °F 29.89 in NW 4.6 mph 4.6 mph 36 % 0.00 in
12:46 68.3 °F 40.3 °F 29.89 in NW 5.8 mph 5.8 mph 36 % 0.00 in
12:51 68.4 °F 39.7 °F 29.89 in NW 4.6 mph 4.6 mph 35 % 0.00 in
12:56 68.2 °F 39.5 °F 29.88 in NW 3.5 mph 3.5 mph 35 % 0.00 in
13:01 68.3 °F 40.3 °F 29.88 in NW 4.6 mph 4.6 mph 36 % 0.00 in
13:06 68.3 °F 39.6 °F 29.88 in NW 5.8 mph 5.8 mph 35 % 0.00 in
13:11 68.0 °F 38.6 °F 29.88 in NNE 5.0 mph 5.0 mph 34 % 0.00 in
13:16 68.3 °F 39.6 °F 29.88 in NNW 6.0 mph 6.0 mph 35 % 0.00 in
13:21 68.2 °F 39.5 °F 29.87 in WNW 3.5 mph 3.5 mph 35 % 0.00 in
13:26 68.8 °F 39.3 °F 29.87 in North 6.0 mph 6.0 mph 34 % 0.00 in
13:31 68.3 °F 38.1 °F 29.87 in NW 4.6 mph 4.6 mph 33 % 0.00 in
13:36 68.2 °F 38.0 °F 29.87 in NNW 5.8 mph 5.8 mph 33 % 0.00 in
13:41 68.1 °F 38.7 °F 29.86 in North 3.5 mph 3.5 mph 34 % 0.00 in
13:46 68.0 °F 39.3 °F 29.86 in WNW 7.0 mph 7.0 mph 35 % 0.00 in
13:51 68.0 °F 37.8 °F 29.86 in NW 5.0 mph 5.0 mph 33 % 0.00 in
13:56 68.4 °F 38.2 °F 29.86 in NW 5.8 mph 5.8 mph 33 % 0.00 in
14:01 68.2 °F 38.7 °F 29.85 in NNW 3.5 mph 3.5 mph 34 % 0.00 in
14:06 68.3 °F 39.6 °F 29.86 in WNW 6.0 mph 6.0 mph 35 % 0.00 in
14:11 68.2 °F 40.2 °F 29.85 in NW 3.5 mph 3.5 mph 36 % 0.00 in
14:16 68.3 °F 41.0 °F 29.85 in NW 8.1 mph 8.1 mph 37 % 0.00 in
14:21 68.2 °F 40.2 °F 29.85 in NW 5.8 mph 5.8 mph 36 % 0.00 in
14:26 68.0 °F 39.3 °F 29.85 in NW 5.0 mph 5.0 mph 35 % 0.00 in
14:31 68.0 °F 39.3 °F 29.84 in NNW 5.0 mph 5.0 mph 35 % 0.00 in
14:36 68.1 °F 39.4 °F 29.84 in NW 3.5 mph 3.5 mph 35 % 0.00 in
14:41 68.4 °F 38.9 °F 29.84 in WNW 4.6 mph 4.6 mph 34 % 0.00 in
14:46 68.4 °F 38.2 °F 29.83 in WNW 3.5 mph 3.5 mph 33 % 0.00 in
14:51 68.6 °F 39.1 °F 29.83 in WNW 6.9 mph 6.9 mph 34 % 0.00 in
14:56 68.3 °F 39.6 °F 29.83 in NNW 3.5 mph 3.5 mph 35 % 0.00 in
15:01 68.6 °F 40.6 °F 29.83 in WNW 6.9 mph 6.9 mph 36 % 0.00 in
15:06 68.7 °F 39.9 °F 29.83 in WNW 4.6 mph 4.6 mph 35 % 0.00 in
15:11 68.5 °F 40.5 °F 29.83 in NW 6.9 mph 6.9 mph 36 % 0.00 in
15:16 68.1 °F 40.1 °F 29.83 in WNW 3.5 mph 3.5 mph 36 % 0.00 in
15:21 68.0 °F 40.0 °F 29.83 in NW 8.1 mph 8.1 mph 36 % 0.00 in
15:26 67.7 °F 40.5 °F 29.83 in ENE 11.5 mph 11.5 mph 37 % 0.00 in
15:31 67.3 °F 40.8 °F 29.82 in NW 9.2 mph 9.2 mph 38 % 0.00 in
15:36 67.4 °F 40.2 °F 29.82 in NW 4.6 mph 4.6 mph 37 % 0.00 in
15:41 67.1 °F 39.9 °F 29.82 in WNW 4.6 mph 4.6 mph 37 % 0.00 in
15:46 66.9 °F 39.8 °F 29.82 in NW 4.0 mph 4.0 mph 37 % 0.00 in
15:51 66.8 °F 39.7 °F 29.82 in NW 6.9 mph 6.9 mph 37 % 0.00 in
15:56 66.5 °F 40.1 °F 29.82 in NW 4.0 mph 4.0 mph 38 % 0.00 in
16:01 66.4 °F 40.0 °F 29.82 in West 6.9 mph 6.9 mph 38 % 0.00 in
16:06 66.4 °F 40.0 °F 29.82 in WNW 6.0 mph 6.0 mph 38 % 0.00 in
16:11 66.0 °F 40.3 °F 29.82 in NW 5.8 mph 5.8 mph 39 % 0.00 in
16:16 65.7 °F 40.7 °F 29.82 in NW 6.9 mph 6.9 mph 40 % 0.00 in
16:21 65.5 °F 41.2 °F 29.82 in NW 3.5 mph 3.5 mph 41 % 0.00 in
16:26 65.3 °F 40.3 °F 29.82 in NW 6.0 mph 6.0 mph 40 % 0.00 in
16:31 65.0 °F 40.7 °F 29.82 in NW 5.8 mph 5.8 mph 41 % 0.00 in
16:36 64.8 °F 40.5 °F 29.82 in NW 3.5 mph 3.5 mph 41 % 0.00 in
16:41 64.6 °F 40.4 °F 29.82 in WNW 4.6 mph 4.6 mph 41 % 0.00 in
16:46 64.4 °F 40.2 °F 29.82 in NW 5.8 mph 5.8 mph 41 % 0.00 in
16:51 64.1 °F 40.5 °F 29.82 in NW 6.9 mph 6.9 mph 42 % 0.00 in
16:56 63.7 °F 40.8 °F 29.82 in NW 5.8 mph 5.8 mph 43 % 0.00 in
17:01 63.5 °F 40.6 °F 29.82 in NW 5.8 mph 5.8 mph 43 % 0.00 in
17:06 63.1 °F 40.2 °F 29.82 in NW 5.8 mph 5.8 mph 43 % 0.00 in
17:11 62.7 °F 39.9 °F 29.82 in WNW 5.8 mph 5.8 mph 43 % 0.00 in
17:16 62.4 °F 39.6 °F 29.82 in NW 6.9 mph 6.9 mph 43 % 0.00 in
17:21 62.0 °F 39.8 °F 29.82 in NW 4.0 mph 4.0 mph 44 % 0.00 in
17:26 61.6 °F 40.0 °F 29.82 in NW 3.5 mph 3.5 mph 45 % 0.00 in
17:31 61.2 °F 39.7 °F 29.82 in NW 4.6 mph 4.6 mph 45 % 0.00 in
17:36 60.9 °F 39.4 °F 29.82 in NW 6.0 mph 6.0 mph 45 % 0.00 in
17:41 60.5 °F 40.2 °F 29.82 in NW 5.8 mph 5.8 mph 47 % 0.00 in
17:46 60.2 °F 40.4 °F 29.82 in NW 3.5 mph 3.5 mph 48 % 0.00 in
17:51 59.9 °F 40.7 °F 29.82 in NW 4.6 mph 4.6 mph 49 % 0.00 in
17:56 59.6 °F 40.4 °F 29.82 in WNW 5.0 mph 5.0 mph 49 % 0.00 in
18:01 59.3 °F 40.7 °F 29.82 in WNW 3.0 mph 3.0 mph 50 % 0.00 in
18:07 59.1 °F 40.5 °F 29.82 in WNW 3.5 mph 3.5 mph 50 % 0.00 in
18:12 58.8 °F 40.2 °F 29.82 in NW 3.5 mph 3.5 mph 50 % 0.00 in
18:17 58.5 °F 39.9 °F 29.82 in WNW 3.5 mph 3.5 mph 50 % 0.00 in
18:22 58.2 °F 40.1 °F 29.82 in WNW 4.0 mph 4.0 mph 51 % 0.00 in
18:27 57.9 °F 39.9 °F 29.83 in West 3.5 mph 3.5 mph 51 % 0.00 in
18:32 57.8 °F 39.8 °F 29.83 in NNW 4.6 mph 4.6 mph 51 % 0.00 in
18:37 57.5 °F 39.5 °F 29.83 in WNW 3.5 mph 3.5 mph 51 % 0.00 in
18:42 57.4 °F 38.9 °F 29.83 in NW 8.1 mph 8.1 mph 50 % 0.00 in
18:47 57.5 °F 37.9 °F 29.84 in WNW 9.2 mph 9.2 mph 48 % 0.00 in
18:52 57.3 °F 36.1 °F 29.83 in NW 8.1 mph 8.1 mph 45 % 0.00 in
18:57 57.1 °F 35.4 °F 29.83 in WNW 9.2 mph 9.2 mph 44 % 0.00 in
19:02 56.9 °F 35.2 °F 29.84 in WNW 6.9 mph 6.9 mph 44 % 0.00 in
19:07 56.7 °F 35.6 °F 29.84 in NW 11.5 mph 11.5 mph 45 % 0.00 in
19:12 56.6 °F 35.5 °F 29.84 in NW 9.2 mph 9.2 mph 45 % 0.00 in
19:17 56.4 °F 35.9 °F 29.84 in West 11.5 mph 11.5 mph 46 % 0.00 in
19:22 56.3 °F 35.8 °F 29.84 in NW 6.0 mph 6.0 mph 46 % 0.00 in
19:27 55.9 °F 35.9 °F 29.84 in NNW 8.0 mph 8.0 mph 47 % 0.00 in
19:32 55.8 °F 36.4 °F 29.85 in NNE 7.0 mph 7.0 mph 48 % 0.00 in
19:37 55.6 °F 34.6 °F 29.85 in NW 11.5 mph 11.5 mph 45 % 0.00 in
19:42 55.4 °F 35.5 °F 29.86 in WNW 12.0 mph 12.0 mph 47 % 0.00 in
19:47 55.0 °F 34.0 °F 29.86 in NNW 11.5 mph 11.5 mph 45 % 0.00 in
19:52 54.6 °F 33.1 °F 29.86 in NNE 11.5 mph 11.5 mph 44 % 0.00 in
19:57 54.1 °F 32.6 °F 29.87 in NW 12.0 mph 12.0 mph 44 % 0.00 in
20:02 53.8 °F 32.9 °F 29.87 in NNW 11.5 mph 11.5 mph 45 % 0.00 in
20:07 53.6 °F 32.8 °F 29.87 in WNW 11.5 mph 11.5 mph 45 % 0.00 in
20:12 53.4 °F 33.1 °F 29.87 in NW 8.1 mph 8.1 mph 46 % 0.00 in
20:17 53.1 °F 33.4 °F 29.87 in NNE 8.1 mph 8.1 mph 47 % 0.00 in
20:22 52.7 °F 33.5 °F 29.88 in NW 6.9 mph 6.9 mph 48 % 0.00 in
20:27 52.5 °F 33.4 °F 29.88 in WNW 10.4 mph 10.4 mph 48 % 0.00 in
20:32 52.3 °F 33.2 °F 29.88 in NW 8.1 mph 8.1 mph 48 % 0.00 in
20:37 52.0 °F 32.9 °F 29.88 in NW 12.7 mph 12.7 mph 48 % 0.00 in
20:42 51.8 °F 33.2 °F 29.88 in WNW 8.1 mph 8.1 mph 49 % 0.00 in
20:47 51.7 °F 33.1 °F 29.89 in West 8.1 mph 8.1 mph 49 % 0.00 in
20:52 51.5 °F 33.0 °F 29.89 in WNW 9.2 mph 9.2 mph 49 % 0.00 in
20:57 51.3 °F 33.3 °F 29.89 in WNW 9.2 mph 9.2 mph 50 % 0.00 in
21:02 51.2 °F 32.7 °F 29.89 in NW 10.4 mph 10.4 mph 49 % 0.00 in
21:07 51.2 °F 32.7 °F 29.89 in WNW 12.7 mph 12.7 mph 49 % 0.00 in
21:12 51.1 °F 33.1 °F 29.90 in NNW 11.5 mph 11.5 mph 50 % 0.00 in
21:17 50.9 °F 32.9 °F 29.90 in NNE 9.2 mph 9.2 mph 50 % 0.00 in
21:22 50.7 °F 33.2 °F 29.90 in NW 12.7 mph 12.7 mph 51 % 0.00 in
21:27 50.5 °F 33.0 °F 29.90 in NW 11.5 mph 11.5 mph 51 % 0.00 in
21:32 50.3 °F 33.3 °F 29.90 in NNW 10.0 mph 10.0 mph 52 % 0.00 in
21:37 50.1 °F 33.1 °F 29.90 in North 10.4 mph 10.4 mph 52 % 0.00 in
21:42 49.9 °F 33.4 °F 29.90 in NE 4.6 mph 4.6 mph 53 % 0.00 in
21:47 49.7 °F 33.7 °F 29.91 in WNW 5.8 mph 5.8 mph 54 % 0.00 in
21:52 49.5 °F 33.5 °F 29.91 in NW 6.9 mph 6.9 mph 54 % 0.00 in
21:57 49.3 °F 33.8 °F 29.91 in NNW 6.9 mph 6.9 mph 55 % 0.00 in
22:02 49.2 °F 34.2 °F 29.91 in North 8.0 mph 8.0 mph 56 % 0.00 in
22:07 49.1 °F 34.1 °F 29.91 in NW 4.6 mph 4.6 mph 56 % 0.00 in
22:12 49.0 °F 34.4 °F 29.91 in NW 3.5 mph 3.5 mph 57 % 0.00 in
22:17 48.9 °F 34.8 °F 29.91 in NW 3.5 mph 3.5 mph 58 % 0.00 in
22:22 48.7 °F 34.6 °F 29.91 in WNW 5.0 mph 5.0 mph 58 % 0.00 in
22:27 48.5 °F 34.4 °F 29.91 in NW 4.6 mph 4.6 mph 58 % 0.00 in
22:32 48.3 °F 34.2 °F 29.91 in NW 4.0 mph 4.0 mph 58 % 0.00 in
22:37 48.2 °F 34.1 °F 29.92 in WNW 6.9 mph 6.9 mph 58 % 0.00 in
22:42 48.1 °F 34.4 °F 29.92 in WNW 3.5 mph 3.5 mph 59 % 0.00 in
22:47 48.0 °F 34.3 °F 29.92 in WNW 4.6 mph 4.6 mph 59 % 0.00 in
22:52 47.8 °F 34.6 °F 29.92 in NNW 3.5 mph 3.5 mph 60 % 0.00 in
22:57 47.6 °F 34.4 °F 29.92 in NNW 5.8 mph 5.8 mph 60 % 0.00 in
23:02 47.5 °F 34.3 °F 29.92 in NW 5.8 mph 5.8 mph 60 % 0.00 in
23:07 47.5 °F 34.3 °F 29.92 in NW 4.6 mph 4.6 mph 60 % 0.00 in
23:12 47.4 °F 34.2 °F 29.92 in NW 3.5 mph 3.9 mph 60 % 0.00 in
23:17 47.3 °F 34.1 °F 29.93 in NW 6.9 mph 6.9 mph 60 % 0.00 in
23:23 47.2 °F 34.0 °F 29.92 in NW 8.1 mph 8.1 mph 60 % 0.00 in
23:28 47.2 °F 34.4 °F 29.93 in WNW 4.6 mph 4.6 mph 61 % 0.00 in
23:33 47.0 °F 33.8 °F 29.93 in WNW 8.1 mph 8.1 mph 60 % 0.00 in
23:38 46.9 °F 33.7 °F 29.93 in NW 3.5 mph 3.5 mph 60 % 0.00 in
23:43 46.6 °F 33.9 °F 29.93 in NW 8.1 mph 8.1 mph 61 % 0.00 in
23:48 46.4 °F 33.7 °F 29.93 in NW 4.6 mph 4.6 mph 61 % 0.00 in
23:53 46.1 °F 33.8 °F 29.93 in West 5.0 mph 5.0 mph 62 % 0.00 in
23:58 46.0 °F 33.3 °F 29.93 in WNW 5.8 mph 5.8 mph 61 % 0.00 in
Park Place, Exeter, Tulare County, California, USA
Compliments of Weather Underground - 2.75 mb